Time;durP1;ratioP1;P1;durP2;ratioP2;P2;SDS_P1;SDS_P2;PMS_P1;PMS_P2;Temp;Humidity;BMP_temperature;BMP_pressure;BME280_temperature;BME280_humidity;BME280_pressure;Samples;Min_cycle;Max_cycle;Signal;HPM_P1;HPM_P2
2022/11/30 00:24:58;;;;;;;;;;;;;;;;;;;;;
2022/11/30 00:40:30;;;;;;;31.15;14.30;;;;;;;3.87;56.79;102260.75;4626602;30;20066;-74
2022/11/30 00:43:43;;;;;;;29.13;14.23;;;;;;;3.93;56.65;102260.84;4666292;30;20112;-73
2022/11/30 00:46:29;;;;;;;35.50;15.82;;;;;;;3.92;56.91;102260.84;4788219;29;20053;-73
2022/11/30 00:49:57;;;;;;;36.10;17.58;;;;;;;3.87;56.84;102263.34;4956393;28;20042;-73
2022/11/30 00:52:45;;;;;;;36.70;15.15;;;;;;;3.88;56.78;102264.25;5015381;28;20124;-73
2022/11/30 00:56:15;;;;;;;;;;;;;;;;;;;;;
2022/11/30 00:59:09;;;;;;;35.00;16.05;;;;;;;3.95;56.53;102258.28;5003494;28;20038;-73
2022/11/30 01:02:32;;;;;;;;;;;;;;;;;;;;;
2022/11/30 01:13:46;;;;;;;38.88;16.60;;;;;;;3.96;56.82;102271.22;4897216;29;20047;-73
2022/11/30 01:52:40;;;;;;;;;;;;;;;;;;;;;
2022/11/30 02:58:05;;;;;;;;;;;;;;;;;;;;;
2022/11/30 03:01:27;;;;;;;;;;;;;;;3.69;56.60;102304.53;4937017;28;20077;-69
2022/11/30 03:35:14;;;;;;;;;;;;;;;;;;;;;
2022/11/30 03:54:21;;;;;;;41.17;16.80;;;;;;;3.75;56.68;102327.88;4826615;29;20491;-74
2022/11/30 04:24:48;;;;;;;;;;;;;;;;;;;;;
2022/11/30 05:15:27;;;;;;;47.90;19.40;;;;;;;3.73;57.23;102365.78;4855095;29;20138;-76
2022/11/30 05:17:50;;;;;;;46.38;18.38;;;;;;;3.73;56.76;102371.81;4881807;28;20051;-72
2022/11/30 05:20:21;;;;;;;57.00;22.77;;;;;;;3.70;57.27;102356.28;4908292;28;20071;-71
2022/11/30 05:27:19;;;;;;;;;;;;;;;;;;;;;
2022/11/30 05:31:19;;;;;;;;;;;;;;;;;;;;;
2022/11/30 05:38:14;;;;;;;66.25;25.65;;;;;;;3.44;57.22;102381.78;4808761;29;20090;-71
2022/11/30 05:42:25;;;;;;;;;;;;;;;;;;;;;
2022/11/30 05:44:48;;;;;;;60.13;24.35;;;;;;;3.53;57.40;102387.06;4815864;29;20122;-70
2022/11/30 05:51:53;;;;;;;;;;;;;;;;;;;;;
2022/11/30 06:07:10;;;;;;;;;;;;;;;;;;;;;
2022/11/30 06:21:56;;;;;;;55.92;22.13;;;;;;;3.39;57.20;102399.81;4960341;28;20292;-73
2022/11/30 06:32:43;;;;;;;;;;;;;;;;;;;;;
2022/11/30 06:35:47;;;;;;;59.10;23.48;;;;;;;3.56;56.69;102410.41;4908155;29;20842;-72
2022/11/30 06:39:24;;;;;;;55.63;22.02;;;;;;;3.46;56.96;102405.94;4907424;29;20048;-73
2022/11/30 06:49:38;;;;;;;64.72;24.13;;;;;;;3.53;56.61;102410.34;4866184;28;20039;-71
2022/11/30 06:52:05;;;;;;;57.17;24.20;;;;;;;3.48;56.75;102411.16;4926862;28;20456;-72
2022/11/30 06:54:31;;;;;;;60.13;23.10;;;;;;;3.61;57.09;102415.63;4937133;28;20139;-71
2022/11/30 06:57:00;;;;;;;56.83;23.83;;;;;;;3.65;56.54;102419.13;4994772;28;20572;-71
2022/11/30 07:00:14;;;;;;;64.13;23.40;;;;;;;3.63;56.77;102429.47;5005562;28;20108;-70
2022/11/30 07:02:48;;;;;;;;;;;;;;;;;;;;;
2022/11/30 07:06:30;;;;;;;58.63;22.58;;;;;;;3.70;56.79;102427.81;5005132;28;20032;-74
2022/11/30 07:09:36;;;;;;;62.42;24.05;;;;;;;3.69;56.53;102432.09;4943269;28;20173;-74
2022/11/30 07:12:32;;;;;;;63.47;22.70;;;;;;;3.66;56.39;102436.38;4942952;28;20035;-75
2022/11/30 07:19:34;;;;;;;;;;;;;;;;;;;;;
2022/11/30 07:22:37;;;;;;;58.30;21.70;;;;;;;3.54;56.58;102445.72;4983298;28;19930;-75
2022/11/30 07:28:08;;;;;;;57.15;23.38;;;;;;;3.56;56.00;102446.59;4988880;28;20038;-76
2022/11/30 07:35:16;;;;;;;61.65;23.77;;;;;;;3.57;56.52;102458.66;4926202;28;20035;-76
2022/11/30 07:41:04;;;;;;;;;;;;;;;3.56;56.06;102462.13;4878161;29;20301;-72
2022/11/30 07:46:42;;;;;;;54.55;22.40;;;;;;;3.73;56.15;102474.41;4889520;29;20069;-73
2022/11/30 07:49:33;;;;;;;62.60;24.90;;;;;;;3.76;56.11;102469.28;4876978;29;20040;-71
2022/11/30 07:52:31;;;;;;;62.35;23.05;;;;;;;3.71;55.86;102465.75;4872234;29;20056;-73
2022/11/30 07:55:37;;;;;;;53.53;23.25;;;;;;;3.66;55.84;102472.59;4872724;29;20209;-76
2022/11/30 08:02:21;;;;;;;52.22;20.65;;;;;;;3.72;56.21;102481.31;4912780;28;20150;-71
2022/11/30 08:16:51;;;;;;;58.75;23.33;;;;;;;3.68;55.66;102497.63;4888439;28;20050;-74
2022/11/30 08:19:39;;;;;;;62.97;24.17;;;;;;;3.68;55.66;102507.09;4933510;28;20066;-72
2022/11/30 08:37:17;;;;;;;60.15;23.33;;;;;;;3.88;55.47;102515.16;4908959;28;20046;-73
2022/11/30 08:40:05;;;;;;;;;;;;;;;;;;;;;
2022/11/30 08:43:00;;;;;;;60.33;22.75;;;;;;;3.89;55.35;102517.75;4935581;28;20149;-72
2022/11/30 08:46:02;;;;;;;50.40;22.37;;;;;;;3.71;55.37;102525.25;4927889;28;20042;-72
2022/11/30 08:53:02;;;;;;;;;;;;;;;;;;;;;
2022/11/30 08:56:39;;;;;;;54.28;22.55;;;;;;;3.67;55.00;102533.78;4898551;29;20059;-72
2022/11/30 09:00:34;;;;;;;;;;;;;;;;;;;;;
2022/11/30 09:03:56;;;;;;;58.38;21.95;;;;;;;3.51;55.32;102536.13;4881763;29;20472;-73
2022/11/30 09:06:29;;;;;;;59.63;21.95;;;;;;;3.62;55.58;102544.06;4885677;29;20056;-72
2022/11/30 09:09:08;;;;;;;61.88;23.15;;;;;;;3.72;55.19;102550.28;4870018;29;20040;-73
2022/11/30 09:11:43;;;;;;;58.60;23.08;;;;;;;3.66;54.95;102545.00;4972491;28;20585;-72
2022/11/30 09:14:17;;;;;;;62.60;23.02;;;;;;;3.82;54.89;102546.97;4969061;28;20048;-73
2022/11/30 09:25:05;;;;;;;59.03;23.55;;;;;;;4.06;54.32;102549.03;4906864;28;20095;-73
2022/11/30 09:27:37;;;;;;;73.05;24.85;;;;;;;4.10;54.36;102547.38;4959059;28;20081;-73
2022/11/30 09:30:03;;;;;;;67.03;25.73;;;;;;;4.13;54.35;102550.84;5004991;28;20057;-73
2022/11/30 09:32:29;;;;;;;68.85;26.27;;;;;;;4.13;54.18;102547.41;4977415;28;20367;-74
2022/11/30 09:47:48;;;;;;;60.03;23.67;;;;;;;4.08;53.63;102552.53;5002753;28;20076;-73
2022/11/30 09:54:52;;;;;;;63.55;21.67;;;;;;;4.13;54.11;102552.59;4869011;29;20082;-70
2022/11/30 09:57:31;;;;;;;62.00;23.70;;;;;;;4.12;54.02;102550.81;4878367;29;20050;-71
2022/11/30 10:00:43;;;;;;;63.53;23.33;;;;;;;4.22;54.50;102555.28;4879049;29;20133;-72
2022/11/30 10:03:34;;;;;;;62.60;24.52;;;;;;;4.24;53.88;102552.72;4925412;28;20052;-72
2022/11/30 10:07:25;;;;;;;59.23;21.87;;;;;;;4.34;53.77;102550.28;4982537;28;20037;-72
2022/11/30 10:10:55;;;;;;;66.30;24.15;;;;;;;4.38;53.47;102552.03;4961948;28;20093;-72
2022/11/30 10:14:18;;;;;;;62.47;22.63;;;;;;;4.47;53.17;102553.88;4914654;29;20048;-72
2022/11/30 10:21:30;;;;;;;59.67;22.73;;;;;;;4.32;53.26;102548.50;4880165;29;20573;-72
2022/11/30 10:24:23;;;;;;;67.70;23.08;;;;;;;4.21;53.45;102548.38;4909650;28;20045;-73
2022/11/30 10:27:33;;;;;;;67.75;24.88;;;;;;;4.19;53.34;102550.09;5002817;28;20413;-73
2022/11/30 10:30:24;;;;;;;59.17;22.52;;;;;;;4.24;53.56;102556.19;4981507;28;20099;-72
2022/11/30 10:33:19;;;;;;;59.65;22.45;;;;;;;4.28;53.76;102551.94;5000873;28;20048;-72
2022/11/30 10:38:58;;;;;;;55.80;22.10;;;;;;;4.41;53.32;102553.81;5007086;28;20045;-73
2022/11/30 10:41:45;;;;;;;65.53;24.50;;;;;;;4.49;53.65;102552.19;5005679;28;20033;-73
2022/11/30 10:44:42;;;;;;;71.47;23.90;;;;;;;4.47;53.65;102548.69;4911250;28;21712;-75
2022/11/30 10:48:11;;;;;;;69.75;25.70;;;;;;;4.56;53.12;102550.53;4976772;28;20045;-76
2022/11/30 10:51:26;;;;;;;59.38;23.50;;;;;;;4.53;53.34;102558.28;4897429;29;20043;-74
2022/11/30 10:54:48;;;;;;;60.05;25.23;;;;;;;4.55;53.30;102561.75;4860774;29;20055;-78
2022/11/30 11:01:28;;;;;;;59.20;23.02;;;;;;;4.32;53.28;102564.94;4830162;29;20311;-74
2022/11/30 11:07:54;;;;;;;67.43;24.15;;;;;;;4.33;52.92;102561.47;4800672;29;20317;-73
2022/11/30 11:10:41;;;;;;;58.83;23.42;;;;;;;4.18;53.24;102566.44;4857338;28;20134;-74
2022/11/30 11:13:40;;;;;;;68.18;23.92;;;;;;;4.15;53.77;102571.59;4947218;28;20144;-73
2022/11/30 11:16:46;;;;;;;73.63;27.92;;;;;;;4.20;53.90;102559.56;4990352;28;20049;-70
2022/11/30 11:19:40;;;;;;;63.45;24.85;;;;;;;4.18;53.31;102556.09;4932498;28;21683;-72
2022/11/30 11:22:30;;;;;;;58.80;23.23;;;;;;;4.11;53.06;102559.44;4994324;28;20045;-72
2022/11/30 11:25:24;;;;;;;65.60;24.38;;;;;;;4.20;53.50;102554.41;5001973;28;20041;-72
2022/11/30 11:51:07;;;;;;;;;;;;;;;;;;;;;
2022/11/30 12:08:36;;;;;;;60.17;21.48;;;;;;;4.53;52.96;102560.88;4994687;28;20041;-70
2022/11/30 12:11:40;;;;;;;53.42;22.92;;;;;;;4.35;53.40;102566.69;4991735;28;20593;-71
2022/11/30 12:14:58;;;;;;;63.78;24.52;;;;;;;4.35;53.08;102570.13;4992069;28;20041;-71
2022/11/30 12:18:05;;;;;;;65.50;23.13;;;;;;;4.33;52.70;102577.00;4989912;28;20516;-70
2022/11/30 12:21:15;;;;;;;59.75;23.13;;;;;;;4.43;53.19;102573.72;5003315;28;20034;-71
2022/11/30 12:27:52;;;;;;;;;;;;;;;;;;;;;
2022/11/30 12:31:21;;;;;;;63.75;24.65;;;;;;;4.68;52.83;102570.56;4996015;28;20040;-71
2022/11/30 12:45:58;;;;;;;52.17;25.83;;;;;;;4.43;53.31;102584.06;4987205;28;20038;-70
2022/11/30 12:49:01;;;;;;;54.50;23.50;;;;;;;4.38;53.11;102579.66;4959607;28;20084;-70
2022/11/30 12:52:02;;;;;;;59.03;23.05;;;;;;;4.36;53.39;102576.19;4988936;28;20392;-71
2022/11/30 13:06:30;;;;;;;55.15;23.73;;;;;;;4.21;53.30;102582.03;4881974;29;20046;-69
2022/11/30 13:17:25;;;;;;;51.45;21.85;;;;;;;4.17;53.44;102591.47;4886779;28;20090;-69
2022/11/30 13:19:59;;;;;;;49.90;22.23;;;;;;;4.28;53.62;102586.44;5001915;28;20037;-71
2022/11/30 13:22:42;;;;;;;55.97;22.70;;;;;;;4.12;53.45;102587.06;4972424;28;20045;-70
2022/11/30 13:33:33;;;;;;;54.63;22.20;;;;;;;4.27;54.07;102586.41;5004975;28;20296;-72
2022/11/30 13:44:32;;;;;;;51.63;21.48;;;;;;;4.28;54.35;102583.00;4881200;29;20426;-73
2022/11/30 13:51:55;;;;;;;65.03;23.60;;;;;;;4.32;53.85;102590.81;4944797;28;20048;-73
2022/11/30 13:55:59;;;;;;;;;;;;;;;;;;;;;
2022/11/30 13:58:53;;;;;;;50.90;21.17;;;;;;;4.31;53.92;102593.38;4934531;28;20165;-73
2022/11/30 14:09:35;;;;;;;54.58;22.73;;;;;;;4.08;54.40;102595.66;4916940;28;20260;-73
2022/11/30 14:12:42;;;;;;;58.67;22.85;;;;;;;4.27;53.84;102600.22;4996412;23;20060;-74
2022/11/30 14:16:05;;;;;;;;;;;;;;;;;;;;;
2022/11/30 14:35:57;;;;;;;;;;;;;;;;;;;;;
2022/11/30 14:39:24;;;;;;;66.05;24.85;;;;;;;4.17;54.87;102616.47;4786184;29;20218;-72
2022/11/30 14:49:25;;;;;;;64.53;24.60;;;;;;;4.13;55.24;102622.44;4767330;29;20485;-70
2022/11/30 14:51:56;;;;;;;59.85;26.02;;;;;;;4.11;54.98;102626.72;4766857;29;20050;-71
2022/11/30 14:54:43;;;;;;;67.50;28.35;;;;;;;4.08;55.52;102624.13;4804289;29;20121;-71
2022/11/30 14:57:26;;;;;;;73.55;26.88;;;;;;;4.19;55.25;102627.72;4989516;28;20772;-70
2022/11/30 14:59:55;;;;;;;65.30;26.58;;;;;;;4.06;55.67;102628.38;4987792;28;20457;-71
2022/11/30 15:02:44;;;;;;;71.55;27.92;;;;;;;4.14;55.29;102626.75;4992486;28;20041;-71
2022/11/30 15:05:27;;;;;;;67.25;26.63;;;;;;;4.11;55.26;102625.00;5006889;28;20045;-70
2022/11/30 15:07:53;;;;;;;80.40;27.25;;;;;;;4.10;55.17;102627.59;4988955;28;20411;-71
2022/11/30 15:10:29;;;;;;;77.85;27.27;;;;;;;4.11;55.47;102621.56;4992936;28;20584;-71
2022/11/30 15:12:55;;;;;;;71.68;26.50;;;;;;;4.10;55.29;102625.00;4975673;28;20033;-69
2022/11/30 15:15:26;;;;;;;67.18;25.73;;;;;;;4.05;55.29;102627.53;5008814;28;20037;-71
2022/11/30 15:17:57;;;;;;;71.55;26.55;;;;;;;4.09;55.37;102631.00;4992211;28;20150;-71
2022/11/30 15:20:50;;;;;;;78.90;28.00;;;;;;;4.07;55.30;102630.97;5007234;28;20383;-69
2022/11/30 15:23:16;;;;;;;71.40;28.77;;;;;;;4.12;55.23;102628.47;4985330;28;20630;-70
2022/11/30 15:25:45;;;;;;;75.40;26.90;;;;;;;4.13;55.36;102628.50;5008910;28;20221;-71
2022/11/30 15:28:16;;;;;;;71.68;27.83;;;;;;;4.04;55.11;102635.25;5010576;28;20037;-72
2022/11/30 15:30:46;;;;;;;82.30;27.13;;;;;;;4.05;55.17;102631.81;5009141;28;20029;-70
2022/11/30 15:33:18;;;;;;;69.88;26.38;;;;;;;4.01;55.30;102642.13;5010348;28;20390;-71
2022/11/30 15:35:46;;;;;;;69.88;26.40;;;;;;;4.05;55.49;102640.47;5008237;28;20252;-72
2022/11/30 15:38:20;;;;;;;75.72;27.95;;;;;;;4.05;55.28;102637.88;5010124;28;20041;-72
2022/11/30 15:40:51;;;;;;;68.43;25.70;;;;;;;4.18;55.49;102633.75;5009332;28;20423;-72
2022/11/30 15:43:22;;;;;;;72.03;27.38;;;;;;;4.06;55.16;102634.44;4977549;28;20045;-70
2022/11/30 15:45:57;;;;;;;66.45;26.73;;;;;;;4.16;55.11;102640.59;5007971;28;20055;-71
2022/11/30 15:48:36;;;;;;;74.05;28.52;;;;;;;4.10;55.16;102636.22;5007572;28;20034;-71
2022/11/30 15:51:02;;;;;;;72.88;26.77;;;;;;;4.07;55.35;102641.31;5011318;28;20042;-72
2022/11/30 15:53:30;;;;;;;72.78;27.95;;;;;;;4.00;55.19;102642.94;5009311;28;20045;-72
2022/11/30 15:56:01;;;;;;;75.20;29.92;;;;;;;3.96;55.67;102648.94;5007413;28;20053;-72
2022/11/30 15:58:36;;;;;;;83.28;28.88;;;;;;;3.84;55.98;102637.53;4991503;28;20045;-72
2022/11/30 16:01:23;;;;;;;124.55;44.85;;;;;;;4.04;55.29;102650.78;4993102;28;20303;-72
2022/11/30 16:03:54;;;;;;;129.77;46.70;;;;;;;4.07;55.35;102650.81;5007196;28;20811;-71
2022/11/30 16:06:47;;;;;;;110.03;42.33;;;;;;;4.09;55.20;102643.94;5011431;28;20599;-72
2022/11/30 16:09:31;;;;;;;105.32;42.00;;;;;;;4.06;55.31;102657.72;5002083;28;20038;-72
2022/11/30 16:11:58;;;;;;;110.78;40.88;;;;;;;4.12;55.35;102652.66;5012084;28;20107;-71
2022/11/30 16:14:24;;;;;;;82.53;28.73;;;;;;;4.06;55.33;102646.50;5010426;28;20033;-72
2022/11/30 16:16:52;;;;;;;93.97;36.22;;;;;;;4.08;55.41;102648.25;4995704;28;20042;-72
2022/11/30 16:19:18;;;;;;;93.38;31.35;;;;;;;4.08;55.28;102653.44;5011727;28;20414;-71
2022/11/30 16:21:44;;;;;;;81.32;31.15;;;;;;;4.16;55.07;102648.38;4996162;28;20041;-72
2022/11/30 16:24:14;;;;;;;78.55;26.55;;;;;;;4.22;55.34;102653.66;4984114;28;20040;-72
2022/11/30 16:26:40;;;;;;;80.03;27.02;;;;;;;4.17;55.05;102655.31;5009334;28;20033;-72
2022/11/30 16:29:06;;;;;;;70.00;24.40;;;;;;;4.24;55.10;102658.84;5012562;28;20485;-72
2022/11/30 16:31:31;;;;;;;77.47;26.27;;;;;;;4.28;55.19;102661.50;5013065;28;20130;-72
2022/11/30 16:33:57;;;;;;;82.97;28.17;;;;;;;4.24;55.12;102658.84;5009990;28;20038;-72
2022/11/30 16:36:22;;;;;;;79.20;26.33;;;;;;;4.24;55.24;102661.44;5012577;28;20068;-72
2022/11/30 16:38:50;;;;;;;79.63;27.00;;;;;;;4.22;55.18;102659.69;5011919;28;20030;-72
2022/11/30 16:41:20;;;;;;;70.90;26.30;;;;;;;4.19;54.98;102671.72;4994158;28;20528;-70
2022/11/30 16:43:47;;;;;;;80.40;28.45;;;;;;;4.12;54.90;102675.94;5010631;28;20045;-72
2022/11/30 16:46:18;;;;;;;76.85;26.05;;;;;;;4.15;55.30;102675.13;5010820;28;20037;-72
2022/11/30 16:48:44;;;;;;;75.47;25.38;;;;;;;4.13;54.86;102675.06;4993541;28;20132;-71
2022/11/30 16:51:14;;;;;;;73.85;26.77;;;;;;;4.15;55.04;102681.16;4996404;28;20420;-72
2022/11/30 16:53:39;;;;;;;66.88;26.98;;;;;;;4.12;54.94;102681.13;5010734;28;20534;-72
2022/11/30 16:56:09;;;;;;;81.45;27.20;;;;;;;4.15;55.01;102677.69;5014122;28;20042;-71
2022/11/30 16:58:34;;;;;;;69.70;27.95;;;;;;;4.19;55.20;102684.66;5009339;28;20056;-71
2022/11/30 17:01:00;;;;;;;72.15;25.83;;;;;;;4.17;55.22;102686.34;4996365;28;20517;-72
2022/11/30 17:03:30;;;;;;;79.40;29.30;;;;;;;4.09;55.00;102691.41;4992936;28;20034;-71
2022/11/30 17:05:55;;;;;;;72.28;23.45;;;;;;;4.09;55.34;102695.72;5010637;28;20030;-72
2022/11/30 17:08:21;;;;;;;74.60;24.15;;;;;;;4.10;55.44;102692.28;5012778;28;20072;-71
2022/11/30 17:10:50;;;;;;;82.05;28.35;;;;;;;4.11;55.17;102694.88;5015088;28;20040;-74
2022/11/30 17:13:16;;;;;;;78.15;26.70;;;;;;;4.10;54.86;102697.47;4993924;28;20503;-73
2022/11/30 17:15:42;;;;;;;75.47;28.17;;;;;;;4.01;55.46;102693.88;5014019;28;20360;-71
2022/11/30 17:18:08;;;;;;;70.57;25.90;;;;;;;3.98;55.63;102688.66;5015242;28;20119;-73
2022/11/30 17:20:35;;;;;;;69.93;26.58;;;;;;;4.02;55.51;102702.50;4998960;28;20034;-74
2022/11/30 17:23:01;;;;;;;79.47;26.63;;;;;;;4.11;55.08;102699.19;4981037;28;20526;-72
2022/11/30 17:25:27;;;;;;;79.18;27.20;;;;;;;4.09;54.99;102695.72;5014188;28;20033;-73
2022/11/30 17:27:52;;;;;;;73.72;25.10;;;;;;;4.15;55.32;102701.00;4993965;28;20067;-73
2022/11/30 17:30:20;;;;;;;95.82;36.25;;;;;;;4.06;55.04;102706.03;5010561;28;20334;-73
2022/11/30 17:32:46;;;;;;;133.52;46.65;;;;;;;4.06;55.16;102701.72;4994855;28;20060;-73
2022/11/30 17:35:13;;;;;;;152.55;58.58;;;;;;;4.08;55.41;102699.16;4995867;28;20029;-73
2022/11/30 17:37:38;;;;;;;113.60;45.22;;;;;;;4.04;55.46;102702.53;4978587;28;20049;-72
2022/11/30 17:40:05;;;;;;;102.13;38.05;;;;;;;3.98;55.53;102704.19;4995911;28;20438;-72
2022/11/30 17:42:31;;;;;;;79.13;31.38;;;;;;;4.06;55.33;102704.28;5009758;28;20630;-71
2022/11/30 17:44:57;;;;;;;96.22;38.55;;;;;;;4.07;55.01;102710.34;4993896;28;20037;-73
2022/11/30 17:47:22;;;;;;;76.28;31.33;;;;;;;4.11;55.00;102704.38;5009260;28;20041;-72
2022/11/30 17:49:49;;;;;;;71.32;27.83;;;;;;;4.08;55.33;102704.34;4985265;28;20073;-73
2022/11/30 17:52:14;;;;;;;76.93;30.90;;;;;;;4.09;55.09;102706.06;4992936;28;20038;-72
2022/11/30 17:54:40;;;;;;;80.30;28.50;;;;;;;4.05;55.36;102714.63;4990812;28;20049;-72
2022/11/30 17:57:06;;;;;;;81.70;28.42;;;;;;;4.04;55.29;102707.72;4992380;28;20042;-73
2022/11/30 17:59:31;;;;;;;86.65;27.25;;;;;;;4.06;55.50;102713.78;5007934;28;20045;-72
2022/11/30 18:01:57;;;;;;;79.70;28.75;;;;;;;4.07;55.19;102713.78;4991391;28;20033;-74
2022/11/30 18:04:22;;;;;;;75.00;26.20;;;;;;;4.14;55.06;102717.34;5006713;28;20033;-73
2022/11/30 18:06:48;;;;;;;74.90;27.95;;;;;;;4.12;55.12;102721.63;4974272;28;20463;-75
2022/11/30 18:09:13;;;;;;;82.72;28.48;;;;;;;4.12;55.26;102719.03;4974375;28;20058;-74
2022/11/30 18:11:39;;;;;;;80.63;28.23;;;;;;;4.14;55.11;102730.28;4992581;28;20038;-72
2022/11/30 18:14:04;;;;;;;81.35;26.73;;;;;;;4.08;55.02;102727.63;4974150;28;20233;-73
2022/11/30 18:16:32;;;;;;;69.70;26.45;;;;;;;4.02;55.34;102723.19;5007337;28;20380;-73
2022/11/30 18:18:58;;;;;;;73.43;28.25;;;;;;;4.04;55.53;102728.41;4989931;28;20577;-73
2022/11/30 18:21:28;;;;;;;87.38;27.75;;;;;;;4.04;54.96;102733.59;4993539;28;20041;-73
2022/11/30 18:23:54;;;;;;;82.35;28.10;;;;;;;4.03;55.51;102737.91;4988554;28;20048;-73
2022/11/30 18:26:22;;;;;;;74.70;28.95;;;;;;;4.04;55.27;102738.75;4991666;28;20383;-73
2022/11/30 18:28:57;;;;;;;76.18;26.90;;;;;;;3.95;55.47;102729.97;4996621;28;20061;-72
2022/11/30 18:31:23;;;;;;;78.45;29.63;;;;;;;4.01;55.38;102740.44;4991200;28;20026;-74
2022/11/30 18:33:54;;;;;;;64.60;25.55;;;;;;;4.06;55.42;102731.91;4998312;28;20042;-74
2022/11/30 18:36:20;;;;;;;72.93;26.08;;;;;;;4.10;55.46;102733.69;4990317;28;20034;-74
2022/11/30 18:38:45;;;;;;;73.28;26.10;;;;;;;4.17;55.31;102740.72;5004715;28;20065;-74
2022/11/30 18:41:11;;;;;;;74.38;25.05;;;;;;;4.15;55.32;102745.00;4991226;28;20041;-74
2022/11/30 18:43:37;;;;;;;84.15;28.63;;;;;;;4.15;55.42;102747.56;4989155;28;20069;-72
2022/11/30 18:46:05;;;;;;;70.82;27.02;;;;;;;4.06;55.03;102744.84;4989465;28;20807;-75
2022/11/30 18:48:31;;;;;;;71.47;25.27;;;;;;;4.10;55.48;102744.06;4988446;28;20083;-72
2022/11/30 18:50:56;;;;;;;70.10;26.73;;;;;;;4.11;55.20;102746.63;4991717;28;20046;-74
2022/11/30 18:53:22;;;;;;;78.90;25.08;;;;;;;4.13;55.12;102750.13;4989485;28;20990;-72
2022/11/30 18:55:47;;;;;;;69.80;25.95;;;;;;;4.14;55.11;102751.00;5005269;28;20034;-72
2022/11/30 18:58:13;;;;;;;85.07;28.67;;;;;;;4.17;55.10;102761.41;5004766;28;20057;-75
2022/11/30 19:00:38;;;;;;;74.50;24.77;;;;;;;4.17;55.25;102745.88;4989556;28;20220;-74
2022/11/30 19:03:04;;;;;;;81.40;26.55;;;;;;;4.27;54.79;102752.94;4989674;28;20304;-73
2022/11/30 19:05:33;;;;;;;61.00;22.85;;;;;;;4.28;54.98;102754.69;4990449;28;20033;-73
2022/11/30 19:08:04;;;;;;;71.93;27.63;;;;;;;4.28;54.61;102759.88;4988766;28;20517;-73
2022/11/30 19:10:39;;;;;;;74.90;27.17;;;;;;;4.18;54.79;102757.97;4991393;28;20088;-73
2022/11/30 19:13:05;;;;;;;62.08;24.13;;;;;;;4.27;54.91;102757.25;5003974;28;20514;-73
2022/11/30 19:15:39;;;;;;;73.78;26.83;;;;;;;4.29;54.70;102761.59;4991356;28;20073;-72
2022/11/30 19:18:05;;;;;;;69.63;25.38;;;;;;;4.32;54.91;102760.78;4990050;28;20042;-73
2022/11/30 19:20:35;;;;;;;70.43;28.38;;;;;;;4.31;54.57;102765.09;4991653;28;20119;-75
2022/11/30 19:23:01;;;;;;;76.97;26.60;;;;;;;4.22;55.00;102760.63;4972149;28;20438;-72
2022/11/30 19:25:26;;;;;;;69.43;24.75;;;;;;;4.33;54.92;102762.53;4991176;28;20041;-75
2022/11/30 19:27:51;;;;;;;71.40;26.70;;;;;;;4.29;54.73;102766.78;5001966;28;20418;-72
2022/11/30 19:30:17;;;;;;;118.88;43.60;;;;;;;4.23;54.47;102761.53;5003998;28;20605;-74
2022/11/30 19:32:43;;;;;;;109.18;44.30;;;;;;;4.30;54.74;102771.13;5003657;28;20063;-72
2022/11/30 19:35:08;;;;;;;86.20;34.42;;;;;;;4.34;54.91;102777.22;4989734;28;20587;-74
2022/11/30 19:37:33;;;;;;;74.97;29.33;;;;;;;4.32;54.57;102774.63;4986886;28;20056;-72
2022/11/30 19:39:59;;;;;;;68.22;27.25;;;;;;;4.38;53.87;102777.28;4989552;28;20052;-73
2022/11/30 19:42:24;;;;;;;70.70;27.67;;;;;;;4.23;54.43;102771.88;4988240;28;20049;-73
2022/11/30 19:44:50;;;;;;;74.20;27.58;;;;;;;4.31;54.42;102772.84;4987960;28;20052;-72
2022/11/30 19:47:15;;;;;;;74.82;28.13;;;;;;;4.21;54.25;102774.44;4986642;28;20045;-72
2022/11/30 19:49:41;;;;;;;76.07;28.42;;;;;;;4.25;54.41;102775.34;4989910;28;20398;-74
2022/11/30 19:52:06;;;;;;;62.50;26.58;;;;;;;4.19;54.65;102780.44;4989536;28;20478;-71
2022/11/30 19:54:32;;;;;;;71.03;27.48;;;;;;;4.17;54.84;102782.97;4989391;28;20037;-74
2022/11/30 19:56:57;;;;;;;70.50;26.67;;;;;;;4.22;54.71;102775.28;5002580;28;20422;-74
2022/11/30 19:59:23;;;;;;;73.32;28.90;;;;;;;4.17;54.64;102776.94;4989709;28;20044;-73
2022/11/30 20:01:48;;;;;;;61.90;25.15;;;;;;;4.13;54.45;102781.19;4987615;28;20029;-74
2022/11/30 20:04:14;;;;;;;74.47;25.83;;;;;;;4.28;54.46;102785.75;4990620;28;20045;-72
2022/11/30 20:06:39;;;;;;;63.22;23.83;;;;;;;4.20;54.29;102777.00;4986399;28;20188;-72
2022/11/30 20:09:07;;;;;;;64.60;26.58;;;;;;;4.16;54.69;102782.94;4973428;28;20042;-73
2022/11/30 20:11:33;;;;;;;64.85;23.73;;;;;;;4.25;54.54;102784.81;4989992;28;20297;-72
2022/11/30 20:13:59;;;;;;;65.78;24.45;;;;;;;4.16;54.37;102786.44;4988082;28;20458;-72
2022/11/30 20:16:25;;;;;;;67.53;24.85;;;;;;;4.18;54.55;102784.72;4988797;28;20042;-74
2022/11/30 20:18:54;;;;;;;70.38;26.90;;;;;;;4.03;54.78;102789.66;4988682;28;20046;-74
2022/11/30 20:21:29;;;;;;;68.60;25.65;;;;;;;4.07;55.01;102788.84;4989126;28;20038;-72
2022/11/30 20:23:58;;;;;;;64.05;24.25;;;;;;;4.05;54.74;102784.47;4987359;28;20037;-71
2022/11/30 20:26:29;;;;;;;71.38;25.02;;;;;;;4.04;54.93;102786.19;4990580;28;20072;-72
2022/11/30 20:28:56;;;;;;;62.78;25.90;;;;;;;3.94;55.42;102789.44;4987285;28;20053;-73
2022/11/30 20:31:25;;;;;;;70.80;27.45;;;;;;;4.05;55.27;102792.25;4989203;28;20566;-72
2022/11/30 20:33:51;;;;;;;63.50;25.88;;;;;;;4.09;55.24;102794.03;4987499;28;20208;-73
2022/11/30 20:36:18;;;;;;;70.80;27.48;;;;;;;4.05;54.82;102802.59;4989780;28;20098;-73
2022/11/30 20:38:43;;;;;;;76.22;27.75;;;;;;;3.96;54.93;102804.19;4987348;28;20042;-74
2022/11/30 20:41:11;;;;;;;70.50;29.08;;;;;;;3.94;54.94;102810.16;4991935;28;20041;-74
2022/11/30 20:43:37;;;;;;;72.68;27.27;;;;;;;3.88;54.96;102805.75;4973037;28;20045;-72
2022/11/30 20:46:11;;;;;;;80.30;27.90;;;;;;;3.83;55.43;102806.50;4994634;28;20388;-74
2022/11/30 20:48:37;;;;;;;69.65;26.15;;;;;;;3.94;54.79;102811.03;4989041;28;20038;-72
2022/11/30 20:51:08;;;;;;;73.32;27.23;;;;;;;4.01;54.51;102806.84;4991826;28;20029;-72
2022/11/30 20:53:33;;;;;;;76.47;28.05;;;;;;;4.07;54.55;102811.25;5006342;28;20046;-73
2022/11/30 20:55:59;;;;;;;76.63;27.70;;;;;;;4.00;54.73;102808.56;4976560;28;20030;-73
2022/11/30 20:58:25;;;;;;;80.82;29.42;;;;;;;4.02;54.76;102806.00;5007252;28;20585;-74
2022/11/30 21:00:50;;;;;;;81.57;27.67;;;;;;;4.05;54.54;102811.25;4990483;28;20466;-72
2022/11/30 21:03:16;;;;;;;72.10;28.10;;;;;;;3.92;54.75;102807.56;4991957;28;20740;-73
2022/11/30 21:05:41;;;;;;;79.53;28.35;;;;;;;4.08;54.56;102802.66;5005617;28;20041;-75
2022/11/30 21:08:07;;;;;;;69.68;28.42;;;;;;;4.04;54.67;102808.63;4990806;28;20046;-73
2022/11/30 21:10:36;;;;;;;67.82;27.05;;;;;;;3.98;54.29;102812.84;5008691;28;20072;-72
2022/11/30 21:13:01;;;;;;;80.90;28.30;;;;;;;3.91;54.67;102808.38;4991624;28;20038;-73
2022/11/30 21:15:27;;;;;;;87.05;30.40;;;;;;;3.91;54.69;102816.16;4992381;28;20037;-72
2022/11/30 21:17:52;;;;;;;73.80;28.70;;;;;;;3.94;54.63;102813.63;4972212;28;20088;-72
2022/11/30 21:20:18;;;;;;;79.28;29.02;;;;;;;3.92;54.23;102810.13;4991578;28;20565;-72
2022/11/30 21:22:43;;;;;;;84.97;28.67;;;;;;;3.92;54.73;102812.72;4985489;28;20073;-74
2022/11/30 21:25:08;;;;;;;78.85;29.60;;;;;;;3.89;54.29;102812.66;4992223;28;20065;-74
2022/11/30 21:27:34;;;;;;;76.35;27.77;;;;;;;3.85;54.46;102813.47;4990005;28;20038;-74
2022/11/30 21:29:59;;;;;;;81.57;29.75;;;;;;;3.86;54.55;102812.59;4988989;28;20560;-73
2022/11/30 21:32:25;;;;;;;80.00;28.83;;;;;;;3.91;54.75;102812.69;4991704;28;20498;-74
2022/11/30 21:34:50;;;;;;;79.18;29.10;;;;;;;3.88;54.55;102815.22;5008538;28;20597;-73
2022/11/30 21:37:16;;;;;;;73.20;27.27;;;;;;;3.90;54.60;102817.00;5007161;28;20593;-72
2022/11/30 21:39:41;;;;;;;78.72;30.58;;;;;;;3.86;54.64;102806.56;5006059;28;20084;-71
2022/11/30 21:42:07;;;;;;;69.05;27.55;;;;;;;3.92;54.37;102815.31;4976119;28;20049;-73
2022/11/30 21:44:32;;;;;;;80.47;28.60;;;;;;;3.91;54.33;102813.56;4991566;28;20034;-72